sensor_id;sensor_type;location;lat;lon;timestamp;P1;durP1;ratioP1;P2;durP2;ratioP2
72761;SDS011;60886;55.034;73.150;2022-12-29T00:00:29;9.38;;;3.55;;
72761;SDS011;60886;55.034;73.150;2022-12-29T00:02:55;7.07;;;1.98;;
72761;SDS011;60886;55.034;73.150;2022-12-29T00:05:26;7.65;;;1.90;;
72761;SDS011;60886;55.034;73.150;2022-12-29T00:08:03;5.70;;;1.80;;
72761;SDS011;60886;55.034;73.150;2022-12-29T00:10:34;6.70;;;1.97;;
72761;SDS011;60886;55.034;73.150;2022-12-29T00:13:00;7.03;;;1.45;;
72761;SDS011;60886;55.034;73.150;2022-12-29T00:15:45;7.28;;;1.80;;
72761;SDS011;60886;55.034;73.150;2022-12-29T00:18:11;7.05;;;1.70;;
72761;SDS011;60886;55.034;73.150;2022-12-29T00:20:43;6.47;;;1.85;;
72761;SDS011;60886;55.034;73.150;2022-12-29T00:23:44;5.27;;;1.30;;
72761;SDS011;60886;55.034;73.150;2022-12-29T00:26:29;6.97;;;1.67;;
72761;SDS011;60886;55.034;73.150;2022-12-29T00:29:14;9.02;;;1.98;;
72761;SDS011;60886;55.034;73.150;2022-12-29T00:32:02;9.60;;;2.70;;
72761;SDS011;60886;55.034;73.150;2022-12-29T00:34:50;9.30;;;2.10;;
72761;SDS011;60886;55.034;73.150;2022-12-29T00:37:39;8.97;;;2.07;;
72761;SDS011;60886;55.034;73.150;2022-12-29T00:40:27;7.20;;;1.83;;
72761;SDS011;60886;55.034;73.150;2022-12-29T00:43:28;9.02;;;2.58;;
72761;SDS011;60886;55.034;73.150;2022-12-29T00:46:13;11.45;;;3.38;;
72761;SDS011;60886;55.034;73.150;2022-12-29T00:48:49;12.35;;;3.22;;
72761;SDS011;60886;55.034;73.150;2022-12-29T00:51:34;13.33;;;2.97;;
72761;SDS011;60886;55.034;73.150;2022-12-29T00:54:00;13.98;;;3.17;;
72761;SDS011;60886;55.034;73.150;2022-12-29T00:56:37;13.48;;;2.67;;
72761;SDS011;60886;55.034;73.150;2022-12-29T00:59:04;10.52;;;2.17;;
72761;SDS011;60886;55.034;73.150;2022-12-29T01:01:32;11.77;;;3.45;;
72761;SDS011;60886;55.034;73.150;2022-12-29T01:04:00;12.83;;;3.43;;
72761;SDS011;60886;55.034;73.150;2022-12-29T01:06:26;11.10;;;2.90;;
72761;SDS011;60886;55.034;73.150;2022-12-29T01:08:54;10.27;;;2.40;;
72761;SDS011;60886;55.034;73.150;2022-12-29T01:11:46;12.27;;;3.45;;
72761;SDS011;60886;55.034;73.150;2022-12-29T01:14:23;9.40;;;2.55;;
72761;SDS011;60886;55.034;73.150;2022-12-29T01:16:50;10.40;;;2.97;;
72761;SDS011;60886;55.034;73.150;2022-12-29T01:19:17;9.95;;;2.17;;
72761;SDS011;60886;55.034;73.150;2022-12-29T01:21:45;9.60;;;2.75;;
72761;SDS011;60886;55.034;73.150;2022-12-29T01:24:12;11.75;;;3.08;;
72761;SDS011;60886;55.034;73.150;2022-12-29T01:26:39;9.32;;;2.63;;
72761;SDS011;60886;55.034;73.150;2022-12-29T01:29:06;13.37;;;3.80;;
72761;SDS011;60886;55.034;73.150;2022-12-29T01:31:32;10.60;;;3.00;;
72761;SDS011;60886;55.034;73.150;2022-12-29T01:33:58;12.02;;;3.10;;
72761;SDS011;60886;55.034;73.150;2022-12-29T01:36:25;11.38;;;2.80;;
72761;SDS011;60886;55.034;73.150;2022-12-29T01:38:51;14.10;;;3.47;;
72761;SDS011;60886;55.034;73.150;2022-12-29T01:41:24;14.83;;;3.53;;
72761;SDS011;60886;55.034;73.150;2022-12-29T01:43:52;19.67;;;5.68;;
72761;SDS011;60886;55.034;73.150;2022-12-29T01:46:23;13.32;;;3.40;;
72761;SDS011;60886;55.034;73.150;2022-12-29T01:49:26;11.75;;;2.70;;
72761;SDS011;60886;55.034;73.150;2022-12-29T01:51:58;10.68;;;2.20;;
72761;SDS011;60886;55.034;73.150;2022-12-29T01:54:33;8.47;;;2.23;;
72761;SDS011;60886;55.034;73.150;2022-12-29T01:57:03;9.43;;;2.40;;
72761;SDS011;60886;55.034;73.150;2022-12-29T01:59:34;8.95;;;2.72;;
72761;SDS011;60886;55.034;73.150;2022-12-29T02:02:16;10.63;;;1.67;;
72761;SDS011;60886;55.034;73.150;2022-12-29T02:04:43;15.35;;;2.67;;
72761;SDS011;60886;55.034;73.150;2022-12-29T02:07:11;7.27;;;2.40;;
72761;SDS011;60886;55.034;73.150;2022-12-29T02:09:43;13.10;;;2.63;;
72761;SDS011;60886;55.034;73.150;2022-12-29T02:12:15;13.15;;;3.17;;
72761;SDS011;60886;55.034;73.150;2022-12-29T02:14:43;13.30;;;3.30;;
72761;SDS011;60886;55.034;73.150;2022-12-29T02:26:38;13.45;;;2.95;;
72761;SDS011;60886;55.034;73.150;2022-12-29T02:40:48;10.38;;;2.80;;
72761;SDS011;60886;55.034;73.150;2022-12-29T02:43:40;9.98;;;2.95;;
72761;SDS011;60886;55.034;73.150;2022-12-29T02:46:22;13.85;;;3.72;;
72761;SDS011;60886;55.034;73.150;2022-12-29T02:49:43;10.67;;;3.90;;
72761;SDS011;60886;55.034;73.150;2022-12-29T02:52:39;12.82;;;3.38;;
72761;SDS011;60886;55.034;73.150;2022-12-29T02:55:20;9.98;;;2.60;;
72761;SDS011;60886;55.034;73.150;2022-12-29T02:58:09;11.77;;;2.53;;
72761;SDS011;60886;55.034;73.150;2022-12-29T03:00:56;11.27;;;3.92;;
72761;SDS011;60886;55.034;73.150;2022-12-29T03:06:51;12.75;;;3.33;;
72761;SDS011;60886;55.034;73.150;2022-12-29T03:15:22;12.90;;;2.78;;
72761;SDS011;60886;55.034;73.150;2022-12-29T03:18:15;13.07;;;3.23;;
72761;SDS011;60886;55.034;73.150;2022-12-29T03:24:12;18.70;;;5.05;;
72761;SDS011;60886;55.034;73.150;2022-12-29T03:26:50;15.65;;;4.90;;
72761;SDS011;60886;55.034;73.150;2022-12-29T03:29:31;15.35;;;3.60;;
72761;SDS011;60886;55.034;73.150;2022-12-29T03:32:03;10.40;;;3.27;;
72761;SDS011;60886;55.034;73.150;2022-12-29T03:34:38;13.93;;;3.38;;
72761;SDS011;60886;55.034;73.150;2022-12-29T03:37:20;14.48;;;3.80;;
72761;SDS011;60886;55.034;73.150;2022-12-29T03:39:52;27.45;;;4.32;;
72761;SDS011;60886;55.034;73.150;2022-12-29T03:42:19;19.33;;;3.50;;
72761;SDS011;60886;55.034;73.150;2022-12-29T03:44:52;11.70;;;3.30;;
72761;SDS011;60886;55.034;73.150;2022-12-29T03:47:22;12.98;;;2.92;;
72761;SDS011;60886;55.034;73.150;2022-12-29T03:49:58;12.07;;;3.58;;
72761;SDS011;60886;55.034;73.150;2022-12-29T03:52:24;37.92;;;4.18;;
72761;SDS011;60886;55.034;73.150;2022-12-29T03:54:52;12.82;;;2.92;;
72761;SDS011;60886;55.034;73.150;2022-12-29T03:57:27;15.07;;;3.07;;
72761;SDS011;60886;55.034;73.150;2022-12-29T04:00:00;12.32;;;3.13;;
72761;SDS011;60886;55.034;73.150;2022-12-29T04:02:39;14.35;;;2.95;;
72761;SDS011;60886;55.034;73.150;2022-12-29T04:05:11;9.55;;;3.05;;
72761;SDS011;60886;55.034;73.150;2022-12-29T04:07:38;16.45;;;3.13;;
72761;SDS011;60886;55.034;73.150;2022-12-29T04:10:05;11.60;;;4.03;;
72761;SDS011;60886;55.034;73.150;2022-12-29T04:12:34;14.35;;;3.47;;
72761;SDS011;60886;55.034;73.150;2022-12-29T04:15:02;9.00;;;2.65;;
72761;SDS011;60886;55.034;73.150;2022-12-29T04:17:34;12.27;;;2.85;;
72761;SDS011;60886;55.034;73.150;2022-12-29T04:20:02;13.27;;;4.13;;
72761;SDS011;60886;55.034;73.150;2022-12-29T04:22:58;14.73;;;3.87;;
72761;SDS011;60886;55.034;73.150;2022-12-29T04:25:30;9.55;;;2.13;;
72761;SDS011;60886;55.034;73.150;2022-12-29T04:27:57;16.50;;;3.25;;
72761;SDS011;60886;55.034;73.150;2022-12-29T04:30:42;17.80;;;2.95;;
72761;SDS011;60886;55.034;73.150;2022-12-29T04:33:24;15.75;;;4.35;;
72761;SDS011;60886;55.034;73.150;2022-12-29T04:35:52;17.97;;;3.50;;
72761;SDS011;60886;55.034;73.150;2022-12-29T04:38:21;14.80;;;2.85;;
72761;SDS011;60886;55.034;73.150;2022-12-29T04:40:59;11.93;;;3.03;;
72761;SDS011;60886;55.034;73.150;2022-12-29T04:43:31;16.25;;;4.13;;
72761;SDS011;60886;55.034;73.150;2022-12-29T04:46:21;15.63;;;3.28;;
72761;SDS011;60886;55.034;73.150;2022-12-29T04:48:57;12.67;;;3.40;;
72761;SDS011;60886;55.034;73.150;2022-12-29T04:51:46;13.40;;;3.40;;
72761;SDS011;60886;55.034;73.150;2022-12-29T04:54:19;12.45;;;3.00;;
72761;SDS011;60886;55.034;73.150;2022-12-29T04:57:05;12.02;;;4.18;;
72761;SDS011;60886;55.034;73.150;2022-12-29T04:59:32;18.58;;;3.85;;
72761;SDS011;60886;55.034;73.150;2022-12-29T05:01:59;10.27;;;2.93;;
72761;SDS011;60886;55.034;73.150;2022-12-29T05:04:28;14.07;;;3.45;;
72761;SDS011;60886;55.034;73.150;2022-12-29T05:06:54;11.45;;;3.70;;
72761;SDS011;60886;55.034;73.150;2022-12-29T05:09:20;13.23;;;3.15;;
72761;SDS011;60886;55.034;73.150;2022-12-29T05:11:50;16.45;;;3.88;;
72761;SDS011;60886;55.034;73.150;2022-12-29T05:14:16;14.43;;;3.87;;
72761;SDS011;60886;55.034;73.150;2022-12-29T05:16:45;16.52;;;4.68;;
72761;SDS011;60886;55.034;73.150;2022-12-29T05:19:22;17.17;;;4.15;;
72761;SDS011;60886;55.034;73.150;2022-12-29T05:21:49;17.90;;;5.03;;
72761;SDS011;60886;55.034;73.150;2022-12-29T05:24:16;18.88;;;4.32;;
72761;SDS011;60886;55.034;73.150;2022-12-29T05:26:42;20.30;;;3.97;;
72761;SDS011;60886;55.034;73.150;2022-12-29T05:29:35;17.08;;;5.28;;
72761;SDS011;60886;55.034;73.150;2022-12-29T05:32:02;16.17;;;4.97;;
72761;SDS011;60886;55.034;73.150;2022-12-29T05:34:28;21.83;;;3.63;;
72761;SDS011;60886;55.034;73.150;2022-12-29T05:37:05;18.02;;;4.35;;
72761;SDS011;60886;55.034;73.150;2022-12-29T05:39:31;14.53;;;4.53;;
72761;SDS011;60886;55.034;73.150;2022-12-29T05:42:00;17.73;;;5.15;;
72761;SDS011;60886;55.034;73.150;2022-12-29T05:44:57;15.75;;;5.05;;
72761;SDS011;60886;55.034;73.150;2022-12-29T05:47:41;23.52;;;5.55;;
72761;SDS011;60886;55.034;73.150;2022-12-29T05:50:19;22.30;;;5.82;;
72761;SDS011;60886;55.034;73.150;2022-12-29T05:53:03;18.50;;;4.90;;
72761;SDS011;60886;55.034;73.150;2022-12-29T05:55:36;21.17;;;4.75;;
72761;SDS011;60886;55.034;73.150;2022-12-29T05:58:02;20.95;;;5.22;;
72761;SDS011;60886;55.034;73.150;2022-12-29T06:00:29;18.45;;;4.72;;
72761;SDS011;60886;55.034;73.150;2022-12-29T06:02:55;24.70;;;5.95;;
72761;SDS011;60886;55.034;73.150;2022-12-29T06:05:21;19.40;;;4.57;;
72761;SDS011;60886;55.034;73.150;2022-12-29T06:07:48;26.35;;;4.85;;
72761;SDS011;60886;55.034;73.150;2022-12-29T06:10:16;21.95;;;5.72;;
72761;SDS011;60886;55.034;73.150;2022-12-29T06:12:53;16.52;;;4.25;;
72761;SDS011;60886;55.034;73.150;2022-12-29T06:15:20;27.67;;;6.05;;
72761;SDS011;60886;55.034;73.150;2022-12-29T06:17:48;24.10;;;8.50;;
72761;SDS011;60886;55.034;73.150;2022-12-29T06:20:15;33.08;;;6.95;;
72761;SDS011;60886;55.034;73.150;2022-12-29T06:22:42;26.88;;;6.95;;
72761;SDS011;60886;55.034;73.150;2022-12-29T06:25:09;28.02;;;7.88;;
72761;SDS011;60886;55.034;73.150;2022-12-29T06:27:36;27.63;;;9.00;;
72761;SDS011;60886;55.034;73.150;2022-12-29T06:30:02;24.87;;;7.10;;
72761;SDS011;60886;55.034;73.150;2022-12-29T06:32:30;22.50;;;6.97;;
72761;SDS011;60886;55.034;73.150;2022-12-29T06:35:03;25.20;;;7.75;;
72761;SDS011;60886;55.034;73.150;2022-12-29T06:37:33;27.80;;;7.45;;
72761;SDS011;60886;55.034;73.150;2022-12-29T06:40:02;23.70;;;6.68;;
72761;SDS011;60886;55.034;73.150;2022-12-29T06:42:42;23.33;;;6.17;;
72761;SDS011;60886;55.034;73.150;2022-12-29T06:45:40;20.30;;;7.00;;
72761;SDS011;60886;55.034;73.150;2022-12-29T06:48:14;26.55;;;7.63;;
72761;SDS011;60886;55.034;73.150;2022-12-29T06:50:51;24.73;;;7.57;;
72761;SDS011;60886;55.034;73.150;2022-12-29T06:53:19;31.13;;;7.25;;
72761;SDS011;60886;55.034;73.150;2022-12-29T06:55:46;31.00;;;7.97;;
72761;SDS011;60886;55.034;73.150;2022-12-29T06:58:13;23.75;;;8.25;;
72761;SDS011;60886;55.034;73.150;2022-12-29T07:00:40;26.77;;;7.28;;
72761;SDS011;60886;55.034;73.150;2022-12-29T07:03:06;30.65;;;8.63;;
72761;SDS011;60886;55.034;73.150;2022-12-29T07:05:33;31.08;;;8.30;;
72761;SDS011;60886;55.034;73.150;2022-12-29T07:07:59;30.63;;;9.23;;
72761;SDS011;60886;55.034;73.150;2022-12-29T07:10:26;19.77;;;8.13;;
72761;SDS011;60886;55.034;73.150;2022-12-29T07:12:52;34.22;;;9.05;;
72761;SDS011;60886;55.034;73.150;2022-12-29T07:15:28;27.42;;;9.15;;
72761;SDS011;60886;55.034;73.150;2022-12-29T07:17:54;28.88;;;8.63;;
72761;SDS011;60886;55.034;73.150;2022-12-29T07:20:21;28.63;;;9.50;;
72761;SDS011;60886;55.034;73.150;2022-12-29T07:22:57;34.00;;;9.35;;
72761;SDS011;60886;55.034;73.150;2022-12-29T07:25:23;23.77;;;8.57;;
72761;SDS011;60886;55.034;73.150;2022-12-29T07:27:54;29.83;;;10.07;;
72761;SDS011;60886;55.034;73.150;2022-12-29T07:30:21;38.30;;;11.45;;
72761;SDS011;60886;55.034;73.150;2022-12-29T07:32:48;31.27;;;9.60;;
72761;SDS011;60886;55.034;73.150;2022-12-29T07:35:14;36.90;;;11.30;;
72761;SDS011;60886;55.034;73.150;2022-12-29T07:37:41;34.22;;;11.30;;
72761;SDS011;60886;55.034;73.150;2022-12-29T07:40:09;32.72;;;11.00;;
72761;SDS011;60886;55.034;73.150;2022-12-29T07:42:36;35.33;;;10.70;;
72761;SDS011;60886;55.034;73.150;2022-12-29T07:45:06;32.30;;;11.63;;
72761;SDS011;60886;55.034;73.150;2022-12-29T07:47:47;38.92;;;11.73;;
72761;SDS011;60886;55.034;73.150;2022-12-29T07:50:15;42.40;;;12.75;;
72761;SDS011;60886;55.034;73.150;2022-12-29T07:52:41;35.65;;;11.07;;
72761;SDS011;60886;55.034;73.150;2022-12-29T07:55:08;33.15;;;11.63;;
72761;SDS011;60886;55.034;73.150;2022-12-29T07:57:35;33.53;;;11.73;;
72761;SDS011;60886;55.034;73.150;2022-12-29T08:00:02;41.53;;;13.50;;
72761;SDS011;60886;55.034;73.150;2022-12-29T08:02:39;39.22;;;14.02;;
72761;SDS011;60886;55.034;73.150;2022-12-29T08:05:05;37.80;;;12.23;;
72761;SDS011;60886;55.034;73.150;2022-12-29T08:07:32;39.83;;;12.13;;
72761;SDS011;60886;55.034;73.150;2022-12-29T08:09:58;40.03;;;12.27;;
72761;SDS011;60886;55.034;73.150;2022-12-29T08:12:24;35.08;;;12.02;;
72761;SDS011;60886;55.034;73.150;2022-12-29T08:14:51;36.33;;;12.15;;
72761;SDS011;60886;55.034;73.150;2022-12-29T08:17:17;36.13;;;10.93;;
72761;SDS011;60886;55.034;73.150;2022-12-29T08:19:44;46.95;;;15.77;;
72761;SDS011;60886;55.034;73.150;2022-12-29T08:22:11;40.60;;;13.30;;
72761;SDS011;60886;55.034;73.150;2022-12-29T08:24:38;37.40;;;12.35;;
72761;SDS011;60886;55.034;73.150;2022-12-29T08:27:04;35.28;;;13.90;;
72761;SDS011;60886;55.034;73.150;2022-12-29T08:29:31;38.13;;;13.07;;
72761;SDS011;60886;55.034;73.150;2022-12-29T08:31:57;35.08;;;10.77;;
72761;SDS011;60886;55.034;73.150;2022-12-29T08:34:30;36.80;;;11.23;;
72761;SDS011;60886;55.034;73.150;2022-12-29T08:36:58;43.03;;;12.70;;
72761;SDS011;60886;55.034;73.150;2022-12-29T08:39:24;38.72;;;13.10;;
72761;SDS011;60886;55.034;73.150;2022-12-29T08:41:51;30.65;;;10.85;;
72761;SDS011;60886;55.034;73.150;2022-12-29T08:44:17;29.63;;;10.95;;
72761;SDS011;60886;55.034;73.150;2022-12-29T08:46:44;39.50;;;12.03;;
72761;SDS011;60886;55.034;73.150;2022-12-29T08:49:10;31.33;;;11.70;;
72761;SDS011;60886;55.034;73.150;2022-12-29T08:51:36;25.10;;;10.57;;
72761;SDS011;60886;55.034;73.150;2022-12-29T08:54:02;29.90;;;9.00;;
72761;SDS011;60886;55.034;73.150;2022-12-29T08:56:29;25.80;;;8.70;;
72761;SDS011;60886;55.034;73.150;2022-12-29T08:58:58;27.37;;;8.13;;
72761;SDS011;60886;55.034;73.150;2022-12-29T09:01:30;24.88;;;7.40;;
72761;SDS011;60886;55.034;73.150;2022-12-29T09:03:59;19.15;;;7.55;;
72761;SDS011;60886;55.034;73.150;2022-12-29T09:06:25;21.13;;;7.80;;
72761;SDS011;60886;55.034;73.150;2022-12-29T09:08:53;20.25;;;7.82;;
72761;SDS011;60886;55.034;73.150;2022-12-29T09:11:25;22.90;;;7.63;;
72761;SDS011;60886;55.034;73.150;2022-12-29T09:13:52;21.02;;;8.00;;
72761;SDS011;60886;55.034;73.150;2022-12-29T09:16:22;22.83;;;8.85;;
72761;SDS011;60886;55.034;73.150;2022-12-29T09:18:49;22.00;;;7.35;;
72761;SDS011;60886;55.034;73.150;2022-12-29T09:21:16;28.67;;;8.40;;
72761;SDS011;60886;55.034;73.150;2022-12-29T09:23:51;27.67;;;9.17;;
72761;SDS011;60886;55.034;73.150;2022-12-29T09:26:17;28.77;;;9.15;;
72761;SDS011;60886;55.034;73.150;2022-12-29T09:28:43;29.35;;;9.02;;
72761;SDS011;60886;55.034;73.150;2022-12-29T09:31:10;26.55;;;9.38;;
72761;SDS011;60886;55.034;73.150;2022-12-29T09:33:36;26.60;;;9.15;;
72761;SDS011;60886;55.034;73.150;2022-12-29T09:36:03;30.37;;;10.30;;
72761;SDS011;60886;55.034;73.150;2022-12-29T09:38:31;32.05;;;10.23;;
72761;SDS011;60886;55.034;73.150;2022-12-29T09:46:58;31.15;;;10.20;;
72761;SDS011;60886;55.034;73.150;2022-12-29T09:52:32;33.05;;;11.15;;
72761;SDS011;60886;55.034;73.150;2022-12-29T09:55:14;29.08;;;9.93;;
72761;SDS011;60886;55.034;73.150;2022-12-29T09:57:58;33.42;;;9.65;;
72761;SDS011;60886;55.034;73.150;2022-12-29T10:00:48;26.13;;;9.55;;
72761;SDS011;60886;55.034;73.150;2022-12-29T10:03:24;23.87;;;9.87;;
72761;SDS011;60886;55.034;73.150;2022-12-29T10:06:14;31.92;;;10.27;;
72761;SDS011;60886;55.034;73.150;2022-12-29T10:09:08;29.50;;;9.38;;
72761;SDS011;60886;55.034;73.150;2022-12-29T10:15:04;28.70;;;10.35;;
72761;SDS011;60886;55.034;73.150;2022-12-29T10:20:54;40.55;;;10.68;;
72761;SDS011;60886;55.034;73.150;2022-12-29T10:26:04;36.38;;;11.57;;
72761;SDS011;60886;55.034;73.150;2022-12-29T10:31:24;34.27;;;11.10;;
72761;SDS011;60886;55.034;73.150;2022-12-29T10:34:10;31.30;;;8.43;;
72761;SDS011;60886;55.034;73.150;2022-12-29T10:36:46;25.60;;;8.48;;
72761;SDS011;60886;55.034;73.150;2022-12-29T10:42:27;27.00;;;9.20;;
72761;SDS011;60886;55.034;73.150;2022-12-29T10:45:12;33.40;;;8.43;;
72761;SDS011;60886;55.034;73.150;2022-12-29T10:47:53;33.58;;;9.20;;
72761;SDS011;60886;55.034;73.150;2022-12-29T10:50:30;32.10;;;7.55;;
72761;SDS011;60886;55.034;73.150;2022-12-29T10:53:00;24.23;;;7.88;;
72761;SDS011;60886;55.034;73.150;2022-12-29T10:55:30;23.90;;;7.57;;
72761;SDS011;60886;55.034;73.150;2022-12-29T10:58:04;23.70;;;6.43;;
72761;SDS011;60886;55.034;73.150;2022-12-29T11:00:33;23.13;;;6.07;;
72761;SDS011;60886;55.034;73.150;2022-12-29T11:08:33;21.25;;;5.75;;
72761;SDS011;60886;55.034;73.150;2022-12-29T11:11:05;15.33;;;4.83;;
72761;SDS011;60886;55.034;73.150;2022-12-29T11:13:46;15.93;;;5.70;;
72761;SDS011;60886;55.034;73.150;2022-12-29T11:16:31;14.52;;;4.78;;
72761;SDS011;60886;55.034;73.150;2022-12-29T11:19:04;20.35;;;5.20;;
72761;SDS011;60886;55.034;73.150;2022-12-29T11:21:38;19.98;;;5.78;;
72761;SDS011;60886;55.034;73.150;2022-12-29T11:27:28;21.75;;;6.20;;
72761;SDS011;60886;55.034;73.150;2022-12-29T11:29:55;17.58;;;5.18;;
72761;SDS011;60886;55.034;73.150;2022-12-29T11:32:27;14.88;;;4.68;;
72761;SDS011;60886;55.034;73.150;2022-12-29T11:34:58;13.85;;;4.90;;
72761;SDS011;60886;55.034;73.150;2022-12-29T11:37:36;12.47;;;4.40;;
72761;SDS011;60886;55.034;73.150;2022-12-29T11:40:05;16.08;;;5.03;;
72761;SDS011;60886;55.034;73.150;2022-12-29T11:42:47;19.27;;;6.15;;
72761;SDS011;60886;55.034;73.150;2022-12-29T11:45:18;17.45;;;5.25;;
72761;SDS011;60886;55.034;73.150;2022-12-29T11:47:50;19.00;;;5.47;;
72761;SDS011;60886;55.034;73.150;2022-12-29T11:50:24;17.33;;;6.10;;
72761;SDS011;60886;55.034;73.150;2022-12-29T11:53:16;17.50;;;5.93;;
72761;SDS011;60886;55.034;73.150;2022-12-29T11:55:56;16.65;;;6.57;;
72761;SDS011;60886;55.034;73.150;2022-12-29T11:58:29;15.00;;;6.00;;
72761;SDS011;60886;55.034;73.150;2022-12-29T12:01:00;20.48;;;6.65;;
72761;SDS011;60886;55.034;73.150;2022-12-29T12:03:37;22.43;;;6.43;;
72761;SDS011;60886;55.034;73.150;2022-12-29T12:06:12;16.88;;;5.07;;
72761;SDS011;60886;55.034;73.150;2022-12-29T12:11:34;20.73;;;6.45;;
72761;SDS011;60886;55.034;73.150;2022-12-29T12:14:30;16.25;;;6.20;;
72761;SDS011;60886;55.034;73.150;2022-12-29T12:17:30;18.70;;;6.53;;
72761;SDS011;60886;55.034;73.150;2022-12-29T12:23:16;22.30;;;7.18;;
72761;SDS011;60886;55.034;73.150;2022-12-29T12:26:15;16.75;;;5.50;;
72761;SDS011;60886;55.034;73.150;2022-12-29T12:29:00;20.60;;;6.95;;
72761;SDS011;60886;55.034;73.150;2022-12-29T12:31:47;22.17;;;6.40;;
72761;SDS011;60886;55.034;73.150;2022-12-29T12:42:50;19.77;;;5.95;;
72761;SDS011;60886;55.034;73.150;2022-12-29T12:54:29;26.05;;;8.75;;
72761;SDS011;60886;55.034;73.150;2022-12-29T12:57:16;28.02;;;8.57;;
72761;SDS011;60886;55.034;73.150;2022-12-29T13:13:44;30.33;;;7.63;;
72761;SDS011;60886;55.034;73.150;2022-12-29T13:19:55;26.50;;;7.13;;
72761;SDS011;60886;55.034;73.150;2022-12-29T13:25:21;40.03;;;7.43;;
72761;SDS011;60886;55.034;73.150;2022-12-29T13:30:28;22.88;;;7.43;;
72761;SDS011;60886;55.034;73.150;2022-12-29T13:38:30;21.75;;;6.03;;
72761;SDS011;60886;55.034;73.150;2022-12-29T13:41:48;29.70;;;6.67;;
72761;SDS011;60886;55.034;73.150;2022-12-29T13:44:00;23.73;;;6.53;;
72761;SDS011;60886;55.034;73.150;2022-12-29T13:46:33;26.42;;;7.13;;
72761;SDS011;60886;55.034;73.150;2022-12-29T13:51:47;22.33;;;6.35;;
72761;SDS011;60886;55.034;73.150;2022-12-29T13:54:35;22.63;;;6.43;;
72761;SDS011;60886;55.034;73.150;2022-12-29T13:57:14;23.42;;;6.43;;
72761;SDS011;60886;55.034;73.150;2022-12-29T14:07:58;25.87;;;7.87;;
72761;SDS011;60886;55.034;73.150;2022-12-29T14:10:48;26.45;;;7.32;;
72761;SDS011;60886;55.034;73.150;2022-12-29T14:13:16;22.30;;;6.88;;
72761;SDS011;60886;55.034;73.150;2022-12-29T14:15:50;42.35;;;6.30;;
72761;SDS011;60886;55.034;73.150;2022-12-29T14:18:24;21.63;;;5.68;;
72761;SDS011;60886;55.034;73.150;2022-12-29T14:23:43;22.17;;;5.95;;
72761;SDS011;60886;55.034;73.150;2022-12-29T14:28:57;61.78;;;6.07;;
72761;SDS011;60886;55.034;73.150;2022-12-29T14:31:47;29.77;;;7.00;;
72761;SDS011;60886;55.034;73.150;2022-12-29T14:34:15;41.63;;;7.67;;
72761;SDS011;60886;55.034;73.150;2022-12-29T14:42:15;28.48;;;7.38;;
72761;SDS011;60886;55.034;73.150;2022-12-29T14:47:33;29.47;;;7.83;;
72761;SDS011;60886;55.034;73.150;2022-12-29T14:50:06;29.85;;;7.10;;
72761;SDS011;60886;55.034;73.150;2022-12-29T14:58:29;27.25;;;7.78;;
72761;SDS011;60886;55.034;73.150;2022-12-29T15:01:03;24.70;;;7.50;;
72761;SDS011;60886;55.034;73.150;2022-12-29T15:03:31;39.50;;;7.78;;
72761;SDS011;60886;55.034;73.150;2022-12-29T15:06:08;24.20;;;6.20;;
72761;SDS011;60886;55.034;73.150;2022-12-29T15:08:39;21.50;;;6.30;;
72761;SDS011;60886;55.034;73.150;2022-12-29T15:13:43;30.13;;;10.60;;
72761;SDS011;60886;55.034;73.150;2022-12-29T15:16:26;37.05;;;8.88;;
72761;SDS011;60886;55.034;73.150;2022-12-29T15:19:01;45.03;;;10.00;;
72761;SDS011;60886;55.034;73.150;2022-12-29T15:21:31;27.90;;;7.32;;
72761;SDS011;60886;55.034;73.150;2022-12-29T15:24:00;28.40;;;8.73;;
72761;SDS011;60886;55.034;73.150;2022-12-29T15:26:49;26.27;;;8.43;;
72761;SDS011;60886;55.034;73.150;2022-12-29T15:32:22;23.27;;;8.52;;
72761;SDS011;60886;55.034;73.150;2022-12-29T15:34:51;31.10;;;11.32;;
72761;SDS011;60886;55.034;73.150;2022-12-29T15:39:53;29.23;;;10.10;;
72761;SDS011;60886;55.034;73.150;2022-12-29T15:42:45;26.10;;;9.07;;
72761;SDS011;60886;55.034;73.150;2022-12-29T15:45:30;24.90;;;9.73;;
72761;SDS011;60886;55.034;73.150;2022-12-29T15:48:00;33.60;;;10.93;;
72761;SDS011;60886;55.034;73.150;2022-12-29T15:50:27;39.00;;;10.95;;
72761;SDS011;60886;55.034;73.150;2022-12-29T15:52:59;70.30;;;11.87;;
72761;SDS011;60886;55.034;73.150;2022-12-29T15:55:34;29.33;;;8.57;;
72761;SDS011;60886;55.034;73.150;2022-12-29T15:58:05;34.05;;;9.90;;
72761;SDS011;60886;55.034;73.150;2022-12-29T16:00:52;35.53;;;9.27;;
72761;SDS011;60886;55.034;73.150;2022-12-29T16:03:27;28.80;;;9.45;;
72761;SDS011;60886;55.034;73.150;2022-12-29T16:06:06;41.93;;;6.90;;
72761;SDS011;60886;55.034;73.150;2022-12-29T16:08:39;22.60;;;8.57;;
72761;SDS011;60886;55.034;73.150;2022-12-29T16:11:27;16.70;;;6.57;;
72761;SDS011;60886;55.034;73.150;2022-12-29T16:14:13;16.80;;;4.57;;
72761;SDS011;60886;55.034;73.150;2022-12-29T16:16:57;20.63;;;6.53;;
72761;SDS011;60886;55.034;73.150;2022-12-29T16:19:29;17.07;;;5.93;;
72761;SDS011;60886;55.034;73.150;2022-12-29T16:22:11;24.35;;;6.25;;
72761;SDS011;60886;55.034;73.150;2022-12-29T16:24:43;25.08;;;7.05;;
72761;SDS011;60886;55.034;73.150;2022-12-29T16:27:21;17.45;;;5.75;;
72761;SDS011;60886;55.034;73.150;2022-12-29T16:29:53;16.05;;;5.22;;
72761;SDS011;60886;55.034;73.150;2022-12-29T16:32:30;17.53;;;5.47;;
72761;SDS011;60886;55.034;73.150;2022-12-29T16:43:22;12.98;;;5.13;;
72761;SDS011;60886;55.034;73.150;2022-12-29T16:48:30;18.33;;;5.22;;
72761;SDS011;60886;55.034;73.150;2022-12-29T16:51:01;14.70;;;3.78;;
72761;SDS011;60886;55.034;73.150;2022-12-29T16:53:38;12.25;;;3.78;;
72761;SDS011;60886;55.034;73.150;2022-12-29T16:56:15;12.68;;;3.55;;
72761;SDS011;60886;55.034;73.150;2022-12-29T16:58:59;12.07;;;2.97;;
72761;SDS011;60886;55.034;73.150;2022-12-29T17:01:34;12.90;;;4.13;;
72761;SDS011;60886;55.034;73.150;2022-12-29T17:04:05;13.32;;;4.20;;
72761;SDS011;60886;55.034;73.150;2022-12-29T17:06:39;14.15;;;3.97;;
72761;SDS011;60886;55.034;73.150;2022-12-29T17:09:16;12.25;;;3.78;;
72761;SDS011;60886;55.034;73.150;2022-12-29T17:11:54;10.93;;;2.73;;
72761;SDS011;60886;55.034;73.150;2022-12-29T17:14:38;9.52;;;2.95;;
72761;SDS011;60886;55.034;73.150;2022-12-29T17:19:46;10.93;;;3.33;;
72761;SDS011;60886;55.034;73.150;2022-12-29T17:22:22;13.07;;;3.05;;
72761;SDS011;60886;55.034;73.150;2022-12-29T17:24:51;13.37;;;3.83;;
72761;SDS011;60886;55.034;73.150;2022-12-29T17:30:24;10.07;;;3.42;;
72761;SDS011;60886;55.034;73.150;2022-12-29T17:32:53;12.05;;;3.05;;
72761;SDS011;60886;55.034;73.150;2022-12-29T17:35:34;9.32;;;3.70;;
72761;SDS011;60886;55.034;73.150;2022-12-29T17:38:00;8.97;;;2.60;;
72761;SDS011;60886;55.034;73.150;2022-12-29T17:40:31;12.80;;;3.58;;
72761;SDS011;60886;55.034;73.150;2022-12-29T17:42:59;12.88;;;3.10;;
72761;SDS011;60886;55.034;73.150;2022-12-29T17:45:27;9.77;;;3.25;;
72761;SDS011;60886;55.034;73.150;2022-12-29T17:47:55;11.23;;;3.10;;
72761;SDS011;60886;55.034;73.150;2022-12-29T17:50:26;7.57;;;2.67;;
72761;SDS011;60886;55.034;73.150;2022-12-29T17:53:05;9.35;;;2.67;;